Naples, FL (34102)

8:39 PM EDT on May 29, 2015 (GMT -0400)
KFLNAPLE31 | | Change Station
CLOSE
Current Station
Personal Weather Station
Location: Naples, FL
Elevation: 20 ft
Nearby Weather Stations

Elev 20 ft 26.16 °N, 81.78 °W | Updated 10 minutes ago

Mostly Cloudy
Mostly Cloudy
81.9 °F
Feels Like 89 °F
N
0.0
Wind Variable Wind from NNW
Gusts 6.0 mph

Today
High -- | Low -- °F
--% Chance of Precip.
Yesterday
High -- | Low -- °F
Precip. -- in
6:35 AM 8:13 PM
Waxing Gibbous, 87% visible
Pressure 30.01 in
Visibility 10.0 miles
Clouds Few 4400 ft
Scattered Clouds 5500 ft
Mostly Cloudy 7000 ft
Heat Index 89 °F
Dew Point 76 °F
Humidity 81%
Rainfall 0.00 in
Snow Depth Not available.
UV 0 out of 12
Pollen 3.80 out of 12
Air Quality Not available.
Flu Activity Sporadic
METAR KAPF 292353Z 31004KT 10SM FEW044 SCT055 BKN070 27/22 A3001 RMK AO2 SLP161 60000 T02720222 10300 20272 53002

More Conditions Fewer Conditions

Pressure 30.01 in
Visibility 10.0 miles
Clouds Few 4400 ft
Scattered Clouds 5500 ft
Mostly Cloudy 7000 ft
Heat Index 89 °F
Dew Point 76 °F
Humidity 81%
Rainfall 0.00 in
Snow Depth Not available.
UV 0 out of 12
Pollen 3.80 out of 12
Air Quality Not available.
Flu Activity Sporadic
METAR KAPF 292353Z 31004KT 10SM FEW044 SCT055 BKN070 27/22 A3001 RMK AO2 SLP161 60000 T02720222 10300 20272 53002

More Conditions Fewer Conditions

10-Day Weather Forecast

Almanac

Astronomy

May. 29, 2015 Rise Set
Actual Time
Civil Twilight
Nautical Twilight
Astronomical Twilight
Moon
Length of Visible Light
Length of Day
Tomorrow will be .
, % of the Moon is Illuminated

Today's Extremes

State Highs State Lows

Community

WunderPhotos

Upload Photos

1,825,411 photos uploaded!

WunderBlogs® & News

Nearby

Air Quality

  Air Quality AQ Index Pollutant
Not available.

Snow Depth

Station Depth Elevation

Earthquake Activity

City Distance Mag. Time & Date
Minimum magnitude displayed is 2.5.

Coastal Water Temperatures

Place Temperature

Stations

Nearby Weather Stations

Station Location Temp. Windchill Dew Point Humidity Wind Precip. Elev Updated Type